CDC8649 ZSHZ-ZYHB
Flight info
| Callsign | CDC8649 |
|---|---|
| Flight time | N/A |
| Altitude | 35100 |
| Route | HZG J859 P40 W56 VYK G212 SOTMU B339 HUR B334 TGO G212 RUSBO W203 PIGAM |
| Aircraft | A21N/M-SDE3FGHIRWY/LB1D1 |
Departure
| Time | N/A |
|---|---|
| Airport | Heze Mudan Airport (ZSHZ) |
Arrival
| Time | 2026-04-20 14:17 |
|---|---|
| Airport | Harbin Taiping International Airport (ZYHB) |
| Time | Latitude | Longitude | Altitude | Speed | Heading |
|---|---|---|---|---|---|
| 2026-04-20 13:51 | 44.57708 | 124.12672 | 34815 ft | 489 kts | 28° |
| 2026-04-20 13:51 | 44.63773 | 124.16760 | 34822 ft | 483 kts | 18° |
| 2026-04-20 13:52 | 44.69851 | 124.20790 | 34591 ft | 485 kts | 28° |
| 2026-04-20 13:52 | 44.72497 | 124.23804 | 34242 ft | 496 kts | 42° |
| 2026-04-20 13:52 | 44.74698 | 124.27577 | 33972 ft | 501 kts | 51° |
| 2026-04-20 13:53 | 44.76731 | 124.31524 | 33715 ft | 501 kts | 51° |
| 2026-04-20 13:53 | 44.78090 | 124.34191 | 33548 ft | 502 kts | 51° |
| 2026-04-20 13:53 | 44.80802 | 124.39483 | 32923 ft | 499 kts | 51° |
| 2026-04-20 13:53 | 44.82855 | 124.43454 | 32146 ft | 498 kts | 50° |
| 2026-04-20 13:54 | 44.84903 | 124.47395 | 31264 ft | 499 kts | 50° |
| 2026-04-20 13:54 | 44.86951 | 124.51342 | 30393 ft | 499 kts | 50° |
| 2026-04-20 13:54 | 44.88306 | 124.53959 | 29810 ft | 498 kts | 50° |
| 2026-04-20 13:54 | 44.90349 | 124.57913 | 28913 ft | 497 kts | 50° |
| 2026-04-20 13:55 | 44.92377 | 124.61845 | 28016 ft | 496 kts | 50° |
| 2026-04-20 13:55 | 44.94409 | 124.65788 | 27070 ft | 495 kts | 50° |
| 2026-04-20 13:55 | 44.97079 | 124.70975 | 25731 ft | 494 kts | 49° |
| 2026-04-20 13:55 | 44.99126 | 124.74967 | 24712 ft | 494 kts | 49° |
| 2026-04-20 13:56 | 45.00462 | 124.77574 | 24110 ft | 494 kts | 49° |
| 2026-04-20 13:56 | 45.03124 | 124.82758 | 23078 ft | 488 kts | 49° |
| 2026-04-20 13:56 | 45.04465 | 124.85370 | 22604 ft | 485 kts | 49° |
| 2026-04-20 13:56 | 45.06431 | 124.89206 | 21974 ft | 479 kts | 49° |
| 2026-04-20 13:57 | 45.08387 | 124.93036 | 21562 ft | 479 kts | 49° |
| 2026-04-20 13:57 | 45.10329 | 124.96839 | 21196 ft | 474 kts | 49° |
| 2026-04-20 13:57 | 45.12242 | 125.00601 | 20683 ft | 466 kts | 49° |
| 2026-04-20 13:57 | 45.14120 | 125.04297 | 20069 ft | 460 kts | 49° |
| 2026-04-20 13:58 | 45.15981 | 125.07955 | 19513 ft | 453 kts | 49° |
| 2026-04-20 13:58 | 45.17808 | 125.11555 | 18945 ft | 447 kts | 49° |
| 2026-04-20 13:58 | 45.19617 | 125.15125 | 18352 ft | 443 kts | 49° |
| 2026-04-20 13:58 | 45.21382 | 125.18609 | 17733 ft | 440 kts | 49° |
| 2026-04-20 13:59 | 45.23163 | 125.22123 | 17053 ft | 439 kts | 49° |
| 2026-04-20 13:59 | 45.24939 | 125.25641 | 16430 ft | 436 kts | 49° |
| 2026-04-20 13:59 | 45.26695 | 125.29118 | 15865 ft | 432 kts | 49° |
| 2026-04-20 13:59 | 45.28436 | 125.32575 | 15325 ft | 428 kts | 50° |
| 2026-04-20 14:00 | 45.30156 | 125.35995 | 14767 ft | 424 kts | 50° |
| 2026-04-20 14:00 | 45.31858 | 125.39389 | 14276 ft | 419 kts | 50° |
| 2026-04-20 14:00 | 45.33535 | 125.42746 | 13820 ft | 414 kts | 50° |
| 2026-04-20 14:00 | 45.35190 | 125.46051 | 13416 ft | 407 kts | 50° |
| 2026-04-20 14:01 | 45.36825 | 125.49329 | 12971 ft | 405 kts | 50° |
| 2026-04-20 14:01 | 45.38436 | 125.52554 | 12576 ft | 393 kts | 50° |
| 2026-04-20 14:01 | 45.39993 | 125.55674 | 12317 ft | 379 kts | 51° |
| 2026-04-20 14:01 | 45.41486 | 125.58673 | 12105 ft | 366 kts | 51° |
| 2026-04-20 14:02 | 45.42916 | 125.61596 | 11916 ft | 354 kts | 52° |
| 2026-04-20 14:02 | 45.44256 | 125.64462 | 11698 ft | 340 kts | 52° |
| 2026-04-20 14:02 | 45.45537 | 125.67208 | 11396 ft | 327 kts | 52° |
| 2026-04-20 14:02 | 45.46770 | 125.69860 | 11070 ft | 316 kts | 52° |
| 2026-04-20 14:03 | 45.47979 | 125.72464 | 10571 ft | 313 kts | 52° |
| 2026-04-20 14:03 | 45.49181 | 125.75053 | 10245 ft | 313 kts | 53° |
| 2026-04-20 14:03 | 45.50364 | 125.77610 | 10038 ft | 305 kts | 53° |
| 2026-04-20 14:03 | 45.51517 | 125.80106 | 9876 ft | 295 kts | 53° |
| 2026-04-20 14:04 | 45.52623 | 125.82506 | 9743 ft | 284 kts | 53° |
| 2026-04-20 14:04 | 45.53694 | 125.84824 | 9553 ft | 277 kts | 53° |
| 2026-04-20 14:04 | 45.54750 | 125.87111 | 9223 ft | 275 kts | 53° |
| 2026-04-20 14:04 | 45.55801 | 125.89392 | 8880 ft | 274 kts | 53° |
| 2026-04-20 14:05 | 45.56840 | 125.91652 | 8520 ft | 274 kts | 53° |
| 2026-04-20 14:05 | 45.57885 | 125.93923 | 8142 ft | 272 kts | 53° |
| 2026-04-20 14:05 | 45.58915 | 125.96163 | 7766 ft | 269 kts | 53° |
| 2026-04-20 14:05 | 45.59939 | 125.98403 | 7382 ft | 268 kts | 53° |
| 2026-04-20 14:06 | 45.60988 | 126.00698 | 7043 ft | 278 kts | 53° |
| 2026-04-20 14:06 | 45.62032 | 126.02984 | 6808 ft | 271 kts | 53° |
| 2026-04-20 14:06 | 45.63033 | 126.05191 | 6637 ft | 260 kts | 54° |
| 2026-04-20 14:06 | 45.64087 | 126.07187 | 6517 ft | 242 kts | 39° |
| 2026-04-20 14:07 | 45.65341 | 126.08734 | 6582 ft | 236 kts | 33° |
| 2026-04-20 14:07 | 45.66626 | 126.10206 | 6644 ft | 237 kts | 33° |
| 2026-04-20 14:07 | 45.67910 | 126.11681 | 6557 ft | 236 kts | 33° |
| 2026-04-20 14:07 | 45.69187 | 126.13159 | 6542 ft | 237 kts | 33° |
| 2026-04-20 14:08 | 45.70466 | 126.14644 | 6426 ft | 236 kts | 33° |
| 2026-04-20 14:08 | 45.71719 | 126.16101 | 6213 ft | 235 kts | 34° |
| 2026-04-20 14:08 | 45.72998 | 126.17598 | 5976 ft | 234 kts | 33° |
| 2026-04-20 14:08 | 45.74244 | 126.19055 | 5727 ft | 233 kts | 34° |
| 2026-04-20 14:09 | 45.75498 | 126.20526 | 5481 ft | 233 kts | 34° |
| 2026-04-20 14:09 | 45.76751 | 126.21989 | 5238 ft | 232 kts | 34° |
| 2026-04-20 14:09 | 45.77999 | 126.23451 | 4997 ft | 231 kts | 34° |
| 2026-04-20 14:09 | 45.79238 | 126.24901 | 4758 ft | 231 kts | 34° |
| 2026-04-20 14:10 | 45.80478 | 126.26355 | 4518 ft | 229 kts | 34° |
| 2026-04-20 14:10 | 45.81699 | 126.27826 | 4273 ft | 230 kts | 39° |
| 2026-04-20 14:10 | 45.82517 | 126.29801 | 3994 ft | 236 kts | 76° |
| 2026-04-20 14:10 | 45.82383 | 126.32085 | 3748 ft | 232 kts | 115° |
| 2026-04-20 14:11 | 45.81441 | 126.33890 | 3544 ft | 223 kts | 137° |
| 2026-04-20 14:11 | 45.80421 | 126.35495 | 3369 ft | 212 kts | 137° |
| 2026-04-20 14:11 | 45.79474 | 126.37040 | 3219 ft | 200 kts | 136° |
| 2026-04-20 14:11 | 45.78587 | 126.38520 | 3018 ft | 193 kts | 136° |
| 2026-04-20 14:12 | 45.77728 | 126.39987 | 2951 ft | 191 kts | 135° |
| 2026-04-20 14:12 | 45.76728 | 126.41144 | 2946 ft | 180 kts | 168° |
| 2026-04-20 14:12 | 45.75574 | 126.41016 | 2966 ft | 164 kts | 215° |
| 2026-04-20 14:12 | 45.74721 | 126.39976 | 3000 ft | 161 kts | 229° |
| 2026-04-20 14:13 | 45.73932 | 126.38845 | 2995 ft | 160 kts | 227° |
| 2026-04-20 14:13 | 45.73120 | 126.37768 | 2882 ft | 159 kts | 225° |
| 2026-04-20 14:13 | 45.72282 | 126.36728 | 2692 ft | 159 kts | 223° |
| 2026-04-20 14:13 | 45.71432 | 126.35713 | 2481 ft | 160 kts | 222° |
| 2026-04-20 14:14 | 45.70597 | 126.34726 | 2261 ft | 151 kts | 221° |
| 2026-04-20 14:14 | 45.69791 | 126.33776 | 2089 ft | 150 kts | 221° |
| 2026-04-20 14:14 | 45.68984 | 126.32824 | 1887 ft | 150 kts | 220° |
| 2026-04-20 14:14 | 45.68178 | 126.31876 | 1682 ft | 150 kts | 220° |
| 2026-04-20 14:15 | 45.67365 | 126.30919 | 1468 ft | 152 kts | 219° |
| 2026-04-20 14:15 | 45.66613 | 126.30033 | 1276 ft | 127 kts | 219° |
| 2026-04-20 14:15 | 45.65935 | 126.29250 | 1086 ft | 125 kts | 219° |
| 2026-04-20 14:15 | 45.65268 | 126.28459 | 936 ft | 125 kts | 219° |
| 2026-04-20 14:16 | 45.64605 | 126.27678 | 768 ft | 125 kts | 220° |
| 2026-04-20 14:16 | 45.63928 | 126.26894 | 607 ft | 125 kts | 219° |
| 2026-04-20 14:16 | 45.63260 | 126.26095 | 465 ft | 123 kts | 220° |
| 2026-04-20 14:16 | 45.62710 | 126.25451 | 457 ft | 74 kts | 218° |
| 2026-04-20 14:17 | 45.62414 | 126.25099 | 460 ft | 50 kts | 219° |
| 2026-04-20 14:17 | 45.62149 | 126.24795 | 463 ft | 40 kts | 218° |
| 2026-04-20 14:17 | 45.62018 | 126.24580 | 464 ft | 29 kts | 242° |
| 2026-04-20 14:17 | 45.61939 | 126.24325 | 464 ft | 29 kts | 248° |
| 2026-04-20 14:18 | 45.61830 | 126.24106 | 467 ft | 27 kts | 218° |
| 2026-04-20 14:18 | 45.61683 | 126.23935 | 466 ft | 20 kts | 219° |
| 2026-04-20 14:18 | 45.61677 | 126.23785 | 469 ft | 18 kts | 277° |
| 2026-04-20 14:18 | 45.61723 | 126.23668 | 469 ft | 13 kts | 312° |
| 2026-04-20 14:19 | 45.61765 | 126.23556 | 469 ft | 13 kts | 262° |
| 2026-04-20 14:19 | 45.61746 | 126.23486 | 470 ft | 7 kts | 282° |
| 2026-04-20 14:19 | 45.61767 | 126.23443 | 470 ft | 0 kts | 308° |
| 2026-04-20 14:20 | 45.61769 | 126.23439 | 467 ft | 0 kts | 309° |